createdAt,value
2023-01-22T00:00:01.454Z,35
2023-01-22T00:01:02.069Z,32
2023-01-22T00:02:02.002Z,34
2023-01-22T00:03:01.480Z,31
2023-01-22T00:04:01.653Z,29
2023-01-22T00:05:02.476Z,27
2023-01-22T00:06:01.463Z,30
2023-01-22T00:07:01.459Z,31
2023-01-22T00:08:01.779Z,30
2023-01-22T00:09:02.336Z,28
2023-01-22T00:10:01.572Z,29
2023-01-22T00:11:01.630Z,30
2023-01-22T00:12:01.550Z,33
2023-01-22T00:13:01.546Z,28
2023-01-22T00:14:07.003Z,29
2023-01-22T00:15:01.466Z,27
2023-01-22T00:16:01.466Z,30
2023-01-22T00:17:01.959Z,27
2023-01-22T00:18:02.032Z,30
2023-01-22T00:19:01.454Z,28
2023-01-22T00:20:01.514Z,28
2023-01-22T00:21:01.911Z,27
2023-01-22T00:22:01.469Z,26
2023-01-22T00:23:01.437Z,27
2023-01-22T00:24:01.441Z,24
2023-01-22T00:25:01.838Z,27
2023-01-22T00:26:01.439Z,31
2023-01-22T00:27:02.046Z,28
2023-01-22T00:28:02.303Z,26
2023-01-22T00:29:01.494Z,28
2023-01-22T00:30:02.229Z,27
2023-01-22T00:31:02.564Z,29
2023-01-22T00:32:02.349Z,29
2023-01-22T00:33:01.966Z,29
2023-01-22T00:34:01.597Z,30
2023-01-22T00:35:02.021Z,31
2023-01-22T00:36:01.941Z,32
2023-01-22T00:37:01.930Z,30
2023-01-22T00:38:01.500Z,29
2023-01-22T00:39:01.516Z,30
2023-01-22T00:40:02.447Z,30
2023-01-22T00:41:02.162Z,27
2023-01-22T00:42:02.178Z,30
2023-01-22T00:43:02.718Z,29
2023-01-22T00:44:01.975Z,30
2023-01-22T00:45:03.024Z,27
2023-01-22T00:46:01.431Z,29
2023-01-22T00:47:01.901Z,30
2023-01-22T00:48:01.496Z,31
2023-01-22T00:49:03.318Z,29
2023-01-22T00:50:01.982Z,27
2023-01-22T00:51:01.832Z,30
2023-01-22T00:52:01.433Z,28
2023-01-22T00:53:02.195Z,28
2023-01-22T00:54:01.434Z,31
2023-01-22T00:55:01.424Z,31
2023-01-22T00:56:01.581Z,28
2023-01-22T00:57:01.444Z,29
2023-01-22T00:58:01.440Z,31
2023-01-22T00:59:01.800Z,26
2023-01-22T01:00:02.131Z,31
2023-01-22T01:01:01.509Z,31
2023-01-22T01:02:02.348Z,31
2023-01-22T01:03:01.452Z,32
2023-01-22T01:04:01.523Z,31
2023-01-22T01:05:02.254Z,31
2023-01-22T01:06:01.858Z,31
2023-01-22T01:07:02.046Z,31
2023-01-22T01:08:01.739Z,28
2023-01-22T01:09:01.629Z,31
2023-01-22T01:10:01.638Z,28
2023-01-22T01:11:01.479Z,32
2023-01-22T01:12:01.483Z,30
2023-01-22T01:13:01.619Z,30
2023-01-22T01:14:01.418Z,30
2023-01-22T01:15:00.761Z,29
2023-01-22T01:16:02.518Z,28
2023-01-22T01:17:01.643Z,30
2023-01-22T01:18:01.871Z,30
2023-01-22T01:19:02.234Z,28
2023-01-22T01:20:01.524Z,27
2023-01-22T01:21:01.548Z,30
2023-01-22T01:22:01.965Z,32
2023-01-22T01:23:01.431Z,28
2023-01-22T01:24:01.486Z,29
2023-01-22T01:25:01.887Z,30
2023-01-22T01:26:01.428Z,27
2023-01-22T01:27:01.468Z,30
2023-01-22T01:28:01.410Z,30
2023-01-22T01:29:01.556Z,29
2023-01-22T01:30:01.471Z,32
2023-01-22T01:31:01.919Z,31
2023-01-22T01:32:01.618Z,28
2023-01-22T01:33:01.422Z,27
2023-01-22T01:34:01.965Z,32
2023-01-22T01:35:01.714Z,28
2023-01-22T01:36:01.434Z,29
2023-01-22T01:37:01.512Z,31
2023-01-22T01:38:00.838Z,30
2023-01-22T01:39:02.203Z,30
2023-01-22T01:40:01.497Z,30
2023-01-22T01:41:01.780Z,29
2023-01-22T01:42:01.733Z,27
2023-01-22T01:43:01.426Z,31
2023-01-22T01:44:01.561Z,31
2023-01-22T01:45:01.834Z,29
2023-01-22T01:46:01.493Z,29
2023-01-22T01:47:01.932Z,29
2023-01-22T01:48:01.415Z,26
2023-01-22T01:49:01.425Z,27
2023-01-22T01:50:01.462Z,28
2023-01-22T01:51:01.552Z,25
2023-01-22T01:52:02.095Z,29
2023-01-22T01:53:01.755Z,25
2023-01-22T01:54:02.088Z,26
2023-01-22T01:55:01.510Z,29
2023-01-22T01:56:01.430Z,27
2023-01-22T01:57:01.430Z,27
2023-01-22T01:58:01.408Z,24
2023-01-22T01:59:02.222Z,26
2023-01-22T02:00:02.084Z,24
2023-01-22T02:01:01.565Z,25
2023-01-22T02:02:01.612Z,25
2023-01-22T02:03:01.502Z,26
2023-01-22T02:04:01.443Z,23
2023-01-22T02:05:01.431Z,26
2023-01-22T02:06:01.407Z,25
2023-01-22T02:07:01.413Z,23
2023-01-22T02:08:01.406Z,24
2023-01-22T02:09:01.415Z,25
2023-01-22T02:10:01.618Z,25
2023-01-22T02:11:01.764Z,26
2023-01-22T02:12:01.491Z,26
2023-01-22T02:13:01.447Z,26
2023-01-22T02:14:01.415Z,26
2023-01-22T02:15:01.556Z,24
2023-01-22T02:16:01.568Z,26
2023-01-22T02:17:01.421Z,27
2023-01-22T02:18:01.409Z,24
2023-01-22T02:19:01.599Z,26
2023-01-22T02:20:01.849Z,24
2023-01-22T02:21:01.496Z,21
2023-01-22T02:22:02.335Z,25
2023-01-22T02:23:01.409Z,25
2023-01-22T02:24:01.436Z,24
2023-01-22T02:25:01.857Z,26
2023-01-22T02:26:02.006Z,22
2023-01-22T02:27:01.637Z,23
2023-01-22T02:28:01.411Z,24
2023-01-22T02:29:02.200Z,24
2023-01-22T02:30:01.930Z,23
2023-01-22T02:31:01.500Z,21
2023-01-22T02:32:02.135Z,23
2023-01-22T02:33:01.891Z,24
2023-01-22T02:34:01.484Z,21
2023-01-22T02:35:01.427Z,20
2023-01-22T02:36:01.982Z,21
2023-01-22T02:37:02.117Z,21
2023-01-22T02:38:01.503Z,18
2023-01-22T02:39:01.427Z,21
2023-01-22T02:40:01.439Z,23
2023-01-22T02:41:01.401Z,21
2023-01-22T02:42:02.185Z,23
2023-01-22T02:43:02.367Z,19
2023-01-22T02:44:01.918Z,19
2023-01-22T02:45:00.466Z,21
2023-01-22T02:46:01.702Z,21
2023-01-22T02:47:01.476Z,20
2023-01-22T02:48:01.840Z,19
2023-01-22T02:49:01.927Z,20
2023-01-22T02:50:01.435Z,20
2023-01-22T02:51:01.450Z,19
2023-01-22T02:52:02.261Z,19
2023-01-22T02:53:01.425Z,16
2023-01-22T02:54:01.431Z,19
2023-01-22T02:55:01.835Z,18
2023-01-22T02:56:01.442Z,19
2023-01-22T02:57:01.743Z,17
2023-01-22T02:58:01.600Z,18
2023-01-22T02:59:01.689Z,19
2023-01-22T03:00:01.778Z,18
2023-01-22T03:01:01.784Z,18
2023-01-22T03:02:01.473Z,19
2023-01-22T03:03:01.412Z,19
2023-01-22T03:04:02.001Z,18
2023-01-22T03:05:01.423Z,18
2023-01-22T03:06:02.391Z,16
2023-01-22T03:07:02.062Z,16
2023-01-22T03:08:01.436Z,16
2023-01-22T03:09:01.826Z,17
2023-01-22T03:10:02.052Z,16
2023-01-22T03:11:01.974Z,16
2023-01-22T03:12:02.025Z,16
2023-01-22T03:13:01.499Z,17
2023-01-22T03:14:01.903Z,18
2023-01-22T03:15:02.267Z,16
2023-01-22T03:16:02.122Z,16
2023-01-22T03:17:01.534Z,18
2023-01-22T03:18:01.894Z,16
2023-01-22T03:19:01.408Z,16
2023-01-22T03:20:01.425Z,15
2023-01-22T03:21:01.471Z,16
2023-01-22T03:22:02.255Z,16
2023-01-22T03:23:01.398Z,15
2023-01-22T03:24:01.426Z,16
2023-01-22T03:25:01.613Z,15
2023-01-22T03:26:01.466Z,14
2023-01-22T03:27:01.395Z,16
2023-01-22T03:28:01.942Z,14
2023-01-22T03:29:01.824Z,14
2023-01-22T03:30:01.536Z,15
2023-01-22T03:31:01.801Z,16
2023-01-22T03:32:01.578Z,17
2023-01-22T03:33:02.050Z,14
2023-01-22T03:34:01.531Z,14
2023-01-22T03:35:02.340Z,15
2023-01-22T03:36:01.879Z,15
2023-01-22T03:37:01.676Z,15
2023-01-22T03:38:01.739Z,15
2023-01-22T03:39:02.286Z,15
2023-01-22T03:40:01.943Z,14
2023-01-22T03:41:01.738Z,14
2023-01-22T03:42:01.986Z,15
2023-01-22T03:43:01.408Z,14
2023-01-22T03:44:01.406Z,14
2023-01-22T03:45:01.561Z,14
2023-01-22T03:46:02.062Z,14
2023-01-22T03:47:01.465Z,14
2023-01-22T03:48:01.586Z,15
2023-01-22T03:49:02.010Z,15
2023-01-22T03:50:02.068Z,13
2023-01-22T03:51:01.679Z,13
2023-01-22T03:52:00.228Z,13
2023-01-22T03:53:02.176Z,14
2023-01-22T03:54:02.192Z,15
2023-01-22T03:55:01.436Z,15
2023-01-22T03:56:01.829Z,12
2023-01-22T03:57:01.432Z,13
2023-01-22T03:58:02.288Z,14
2023-01-22T03:59:01.394Z,13
2023-01-22T04:00:02.107Z,15
2023-01-22T04:01:01.739Z,13
2023-01-22T04:02:01.537Z,13
2023-01-22T04:03:02.146Z,13
2023-01-22T04:04:02.227Z,12
2023-01-22T04:05:02.184Z,12
2023-01-22T04:06:01.410Z,12
2023-01-22T04:07:01.386Z,13
2023-01-22T04:08:02.015Z,13
2023-01-22T04:09:01.861Z,12
2023-01-22T04:10:01.466Z,14
2023-01-22T04:15:20.404Z,13
2023-01-22T04:16:01.447Z,11
2023-01-22T04:17:01.406Z,12
2023-01-22T04:18:01.983Z,11
2023-01-22T04:19:01.849Z,12
2023-01-22T04:20:02.184Z,11
2023-01-22T04:21:01.903Z,13
2023-01-22T04:22:02.039Z,12
2023-01-22T04:23:01.430Z,11
2023-01-22T04:24:01.399Z,11
2023-01-22T04:25:01.399Z,11
2023-01-22T04:26:01.959Z,12
2023-01-22T04:27:01.801Z,11
2023-01-22T04:28:01.445Z,11
2023-01-22T04:29:01.418Z,12
2023-01-22T04:30:02.069Z,12
2023-01-22T04:31:01.630Z,11
2023-01-22T04:32:02.172Z,10
2023-01-22T04:33:02.120Z,10
2023-01-22T04:34:01.771Z,11
2023-01-22T04:35:01.402Z,12
2023-01-22T04:36:02.154Z,12
2023-01-22T04:37:01.404Z,12
2023-01-22T04:38:01.485Z,11
2023-01-22T04:39:01.442Z,11
2023-01-22T04:40:01.475Z,10
2023-01-22T04:41:02.184Z,11
2023-01-22T04:42:01.912Z,11
2023-01-22T04:43:01.839Z,12
2023-01-22T04:44:01.398Z,12
2023-01-22T04:45:01.913Z,12
2023-01-22T04:46:01.518Z,10
2023-01-22T04:47:02.009Z,10
2023-01-22T04:48:01.458Z,12
2023-01-22T04:49:01.472Z,12
2023-01-22T04:50:01.544Z,11
2023-01-22T04:51:01.449Z,10
2023-01-22T04:52:01.829Z,9
2023-01-22T04:53:01.418Z,10
2023-01-22T04:54:02.161Z,11
2023-01-22T04:55:01.777Z,11
2023-01-22T04:56:01.414Z,11
2023-01-22T04:57:01.504Z,12
2023-01-22T04:58:01.440Z,10
2023-01-22T04:59:00.535Z,10
2023-01-22T05:00:01.390Z,11
2023-01-22T05:01:02.289Z,11
2023-01-22T05:02:01.587Z,10
2023-01-22T05:03:01.385Z,12
2023-01-22T05:04:01.861Z,11
2023-01-22T05:05:01.980Z,12
2023-01-22T05:06:01.468Z,11
2023-01-22T05:07:01.429Z,12
2023-01-22T05:08:01.968Z,11
2023-01-22T05:09:01.398Z,11
2023-01-22T05:10:01.548Z,12
2023-01-22T05:11:02.123Z,11
2023-01-22T05:12:01.655Z,11
2023-01-22T05:13:01.546Z,11
2023-01-22T05:14:01.457Z,12
2023-01-22T05:15:02.941Z,10
2023-01-22T05:16:01.478Z,13
2023-01-22T05:17:01.414Z,13
2023-01-22T05:18:02.015Z,12
2023-01-22T05:19:01.749Z,12
2023-01-22T05:20:01.694Z,15
2023-01-22T05:21:02.072Z,12
2023-01-22T05:22:01.963Z,12
2023-01-22T05:23:00.766Z,11
2023-01-22T05:24:01.657Z,12
2023-01-22T05:25:01.387Z,13
2023-01-22T05:26:01.904Z,13
2023-01-22T05:27:02.140Z,13
2023-01-22T05:28:02.090Z,13
2023-01-22T05:29:02.346Z,11
2023-01-22T05:30:01.411Z,13
2023-01-22T05:31:01.819Z,13
2023-01-22T05:32:01.610Z,13
2023-01-22T05:33:01.949Z,14
2023-01-22T05:34:01.399Z,14
2023-01-22T05:35:01.793Z,14
2023-01-22T05:36:01.693Z,13
2023-01-22T05:37:01.715Z,13
2023-01-22T05:38:01.646Z,13
2023-01-22T05:39:01.754Z,15
2023-01-22T05:40:01.380Z,13
2023-01-22T05:41:02.377Z,13
2023-01-22T05:42:01.796Z,16
2023-01-22T05:43:01.396Z,12
2023-01-22T05:44:01.378Z,14
2023-01-22T05:45:01.379Z,14
2023-01-22T05:46:01.507Z,13
2023-01-22T05:47:01.822Z,15
2023-01-22T05:48:01.415Z,14
2023-01-22T05:49:02.115Z,14
2023-01-22T05:50:01.420Z,14
2023-01-22T05:51:01.433Z,15
2023-01-22T05:52:01.557Z,13
2023-01-22T05:53:01.583Z,14
2023-01-22T05:54:01.395Z,15
2023-01-22T05:55:01.643Z,16
2023-01-22T05:56:01.618Z,15
2023-01-22T05:57:01.381Z,14
2023-01-22T05:58:01.535Z,12
2023-01-22T05:59:02.209Z,14
2023-01-22T06:00:02.274Z,13
2023-01-22T06:01:01.387Z,15
2023-01-22T06:02:01.710Z,14
2023-01-22T06:03:01.798Z,15
2023-01-22T06:04:01.382Z,15
2023-01-22T06:05:01.430Z,16
2023-01-22T06:06:02.274Z,13
2023-01-22T06:07:00.491Z,14
2023-01-22T06:08:01.408Z,15
2023-01-22T06:09:03.348Z,13
2023-01-22T06:10:01.829Z,13
2023-01-22T06:11:02.167Z,14
2023-01-22T06:12:02.013Z,14
2023-01-22T06:13:02.432Z,12
2023-01-22T06:14:01.372Z,14
2023-01-22T06:15:01.555Z,15
2023-01-22T06:16:01.483Z,14
2023-01-22T06:17:01.693Z,15
2023-01-22T06:18:01.382Z,15
2023-01-22T06:19:02.250Z,14
2023-01-22T06:20:01.894Z,15
2023-01-22T06:21:01.850Z,15
2023-01-22T06:22:01.387Z,15
2023-01-22T06:23:01.494Z,15
2023-01-22T06:24:02.296Z,14
2023-01-22T06:25:01.857Z,16
2023-01-22T06:26:01.379Z,12
2023-01-22T06:27:01.410Z,15
2023-01-22T06:28:01.386Z,18
2023-01-22T06:29:00.941Z,16
2023-01-22T06:30:01.642Z,16
2023-01-22T06:31:01.543Z,17
2023-01-22T06:32:01.376Z,16
2023-01-22T06:33:01.529Z,16
2023-01-22T06:34:01.382Z,16
2023-01-22T06:35:01.837Z,17
2023-01-22T06:36:01.376Z,16
2023-01-22T06:37:01.377Z,17
2023-01-22T06:38:01.870Z,17
2023-01-22T06:39:01.765Z,16
2023-01-22T06:40:02.059Z,15
2023-01-22T06:41:01.460Z,15
2023-01-22T06:42:01.825Z,16
2023-01-22T06:43:01.953Z,14
2023-01-22T06:44:01.827Z,14
2023-01-22T06:45:02.123Z,13
2023-01-22T06:46:01.659Z,16
2023-01-22T06:47:01.373Z,16
2023-01-22T06:48:01.396Z,13
2023-01-22T06:49:01.765Z,15
2023-01-22T06:50:01.467Z,14
2023-01-22T06:51:01.520Z,16
2023-01-22T06:52:01.376Z,14
2023-01-22T06:53:02.305Z,17
2023-01-22T06:54:01.881Z,15
2023-01-22T06:55:01.370Z,15
2023-01-22T06:56:01.383Z,15
2023-01-22T06:57:01.988Z,13
2023-01-22T06:58:01.615Z,14
2023-01-22T06:59:01.407Z,13
2023-01-22T07:00:01.367Z,13
2023-01-22T07:01:01.386Z,12
2023-01-22T07:02:01.820Z,13
2023-01-22T07:03:01.849Z,14
2023-01-22T07:04:01.431Z,12
2023-01-22T07:05:02.326Z,12
2023-01-22T07:06:02.373Z,13
2023-01-22T07:07:01.480Z,14
2023-01-22T07:08:01.378Z,13
2023-01-22T07:09:01.807Z,14
2023-01-22T07:10:01.353Z,14
2023-01-22T07:11:01.367Z,12
2023-01-22T07:12:01.379Z,13
2023-01-22T07:13:02.409Z,13
2023-01-22T07:14:00.196Z,13
2023-01-22T07:15:01.454Z,13
2023-01-22T07:16:01.755Z,11
2023-01-22T07:17:01.856Z,13
2023-01-22T07:18:02.238Z,11
2023-01-22T07:19:01.661Z,12
2023-01-22T07:20:01.639Z,13
2023-01-22T07:21:02.084Z,12
2023-01-22T07:22:02.315Z,13
2023-01-22T07:23:01.392Z,12
2023-01-22T07:24:01.830Z,11
2023-01-22T07:25:02.333Z,11
2023-01-22T07:26:01.391Z,13
2023-01-22T07:27:01.936Z,12
2023-01-22T07:28:02.056Z,11
2023-01-22T07:29:01.473Z,10
2023-01-22T07:30:01.358Z,12
2023-01-22T07:31:01.921Z,11
2023-01-22T07:32:01.640Z,12
2023-01-22T07:33:01.695Z,12
2023-01-22T07:34:02.202Z,12
2023-01-22T07:35:01.878Z,11
2023-01-22T07:36:01.708Z,11
2023-01-22T07:37:01.779Z,11
2023-01-22T07:38:02.001Z,10
2023-01-22T07:39:02.151Z,10
2023-01-22T07:40:01.933Z,11
2023-01-22T07:41:01.385Z,11
2023-01-22T07:42:01.668Z,11
2023-01-22T07:43:01.352Z,11
2023-01-22T07:44:02.104Z,12
2023-01-22T07:45:02.057Z,11
2023-01-22T07:46:01.833Z,11
2023-01-22T07:47:01.378Z,12
2023-01-22T07:48:01.946Z,11
2023-01-22T07:49:01.365Z,11
2023-01-22T07:50:02.057Z,12
2023-01-22T07:51:01.677Z,12
2023-01-22T07:52:01.369Z,11
2023-01-22T07:53:01.826Z,12
2023-01-22T07:54:01.970Z,12
2023-01-22T07:55:02.303Z,14
2023-01-22T07:56:01.491Z,13
2023-01-22T07:57:01.358Z,12
2023-01-22T07:58:01.372Z,12
2023-01-22T07:59:01.436Z,12
2023-01-22T08:00:01.708Z,12
2023-01-22T08:01:01.929Z,13
2023-01-22T08:02:03.451Z,12
2023-01-22T08:03:01.789Z,12
2023-01-22T08:04:01.377Z,13
2023-01-22T08:05:02.323Z,12
2023-01-22T08:06:01.556Z,11
2023-01-22T08:07:01.415Z,12
2023-01-22T08:08:02.007Z,11
2023-01-22T08:09:02.020Z,12
2023-01-22T08:10:01.355Z,12
2023-01-22T08:11:01.830Z,12
2023-01-22T08:12:01.784Z,11
2023-01-22T08:13:01.812Z,11
2023-01-22T08:14:01.361Z,12
2023-01-22T08:15:02.217Z,11
2023-01-22T08:16:01.528Z,10
2023-01-22T08:17:01.760Z,11
2023-01-22T08:18:01.890Z,10
2023-01-22T08:19:01.821Z,10
2023-01-22T08:20:01.953Z,11
2023-01-22T08:21:00.864Z,12
2023-01-22T08:22:01.360Z,11
2023-01-22T08:23:02.254Z,11
2023-01-22T08:24:01.934Z,10
2023-01-22T08:25:01.907Z,10
2023-01-22T08:26:01.998Z,10
2023-01-22T08:27:03.628Z,12
2023-01-22T08:28:01.354Z,11
2023-01-22T08:29:05.941Z,12
2023-01-22T08:30:01.365Z,10
2023-01-22T08:31:02.082Z,11
2023-01-22T08:32:01.632Z,11
2023-01-22T08:33:01.568Z,10
2023-01-22T08:34:01.489Z,10
2023-01-22T08:35:01.809Z,11
2023-01-22T08:36:01.373Z,10
2023-01-22T08:37:01.373Z,12
2023-01-22T08:38:01.747Z,11
2023-01-22T08:39:01.364Z,10
2023-01-22T08:40:02.152Z,10
2023-01-22T08:41:01.843Z,10
2023-01-22T08:42:01.469Z,9
2023-01-22T08:43:01.433Z,9
2023-01-22T08:44:01.574Z,10
2023-01-22T08:45:02.257Z,10
2023-01-22T08:46:01.420Z,10
2023-01-22T08:47:01.647Z,10
2023-01-22T08:48:01.378Z,12
2023-01-22T08:49:01.818Z,10
2023-01-22T08:50:01.927Z,9
2023-01-22T08:51:02.310Z,9
2023-01-22T08:52:01.911Z,9
2023-01-22T08:53:01.349Z,10
2023-01-22T08:54:01.356Z,10
2023-01-22T08:55:02.126Z,9
2023-01-22T08:56:01.906Z,9
2023-01-22T08:57:03.239Z,9
2023-01-22T08:58:01.350Z,9
2023-01-22T08:59:01.995Z,9
2023-01-22T09:00:01.935Z,9
2023-01-22T09:01:03.702Z,8
2023-01-22T09:02:01.769Z,8
2023-01-22T09:03:01.548Z,8
2023-01-22T09:04:01.845Z,9
2023-01-22T09:05:01.344Z,9
2023-01-22T09:06:01.354Z,9
2023-01-22T09:07:01.545Z,8
2023-01-22T09:08:01.421Z,8
2023-01-22T09:09:02.199Z,8
2023-01-22T09:10:01.358Z,8
2023-01-22T09:11:01.905Z,8
2023-01-22T09:12:01.601Z,8
2023-01-22T09:13:01.704Z,8
2023-01-22T09:14:01.723Z,8
2023-01-22T09:15:01.536Z,8
2023-01-22T09:16:01.525Z,8
2023-01-22T09:17:02.081Z,7
2023-01-22T09:18:01.475Z,7
2023-01-22T09:19:01.500Z,8
2023-01-22T09:20:01.869Z,9
2023-01-22T09:21:01.928Z,8
2023-01-22T09:22:01.344Z,8
2023-01-22T09:23:01.903Z,7
2023-01-22T09:24:01.892Z,7
2023-01-22T09:25:01.446Z,7
2023-01-22T09:26:02.080Z,7
2023-01-22T09:27:01.352Z,7
2023-01-22T09:28:00.227Z,7
2023-01-22T09:29:01.818Z,7
2023-01-22T09:30:01.367Z,7
2023-01-22T09:31:01.381Z,7
2023-01-22T09:32:01.992Z,7
2023-01-22T09:33:01.981Z,7
2023-01-22T09:34:01.965Z,7
2023-01-22T09:35:01.436Z,7
2023-01-22T09:36:02.073Z,8
2023-01-22T09:37:01.340Z,7
2023-01-22T09:38:01.751Z,7
2023-01-22T09:39:01.937Z,7
2023-01-22T09:40:01.346Z,7
2023-01-22T09:41:01.340Z,7
2023-01-22T09:42:01.459Z,6
2023-01-22T09:43:02.266Z,7
2023-01-22T09:44:01.458Z,7
2023-01-22T09:45:01.881Z,7
2023-01-22T09:46:02.293Z,6
2023-01-22T09:47:02.030Z,6
2023-01-22T09:48:01.372Z,7
2023-01-22T09:49:01.374Z,7
2023-01-22T09:50:01.351Z,7
2023-01-22T09:51:01.869Z,6
2023-01-22T09:52:03.156Z,10
2023-01-22T09:53:02.098Z,9
2023-01-22T09:54:02.021Z,9
2023-01-22T09:55:02.144Z,7
2023-01-22T09:56:01.344Z,7
2023-01-22T09:57:02.342Z,8
2023-01-22T09:58:01.359Z,8
2023-01-22T09:59:01.376Z,9
2023-01-22T10:00:01.872Z,9
2023-01-22T10:01:02.195Z,10
2023-01-22T10:02:01.822Z,11
2023-01-22T10:03:01.830Z,8
2023-01-22T10:04:01.908Z,10
2023-01-22T10:05:02.103Z,10
2023-01-22T10:06:02.205Z,11
2023-01-22T10:07:02.040Z,13
2023-01-22T10:08:01.425Z,18
2023-01-22T10:09:02.082Z,12
2023-01-22T10:10:01.340Z,11
2023-01-22T10:11:01.352Z,11
2023-01-22T10:12:01.339Z,12
2023-01-22T10:13:01.866Z,11
2023-01-22T10:14:01.670Z,11
2023-01-22T10:15:01.697Z,11
2023-01-22T10:16:01.347Z,11
2023-01-22T10:17:02.215Z,11
2023-01-22T10:18:01.373Z,10
2023-01-22T10:19:02.228Z,12
2023-01-22T10:20:01.784Z,12
2023-01-22T10:21:01.341Z,10
2023-01-22T10:22:01.911Z,9
2023-01-22T10:23:01.813Z,9
2023-01-22T10:24:01.889Z,9
2023-01-22T10:25:01.914Z,10
2023-01-22T10:26:01.421Z,10
2023-01-22T10:27:03.165Z,10
2023-01-22T10:28:02.113Z,9
2023-01-22T10:29:01.339Z,10
2023-01-22T10:30:01.750Z,9
2023-01-22T10:31:01.619Z,9
2023-01-22T10:32:01.728Z,9
2023-01-22T10:33:01.839Z,10
2023-01-22T10:34:01.907Z,11
2023-01-22T10:35:00.498Z,12
2023-01-22T10:36:01.326Z,10
2023-01-22T10:37:01.364Z,10
2023-01-22T10:38:02.288Z,8
2023-01-22T10:39:01.810Z,8
2023-01-22T10:40:01.387Z,8
2023-01-22T10:41:02.043Z,8
2023-01-22T10:42:02.108Z,8
2023-01-22T10:43:01.395Z,8
2023-01-22T10:44:01.422Z,9
2023-01-22T10:45:01.931Z,8
2023-01-22T10:46:01.915Z,9
2023-01-22T10:47:01.645Z,10
2023-01-22T10:48:01.328Z,10
2023-01-22T10:49:01.917Z,9
2023-01-22T10:50:03.442Z,11
2023-01-22T10:51:02.212Z,9
2023-01-22T10:52:02.001Z,8
2023-01-22T10:53:01.393Z,8
2023-01-22T10:54:01.333Z,8
2023-01-22T10:55:01.374Z,9
2023-01-22T10:56:01.984Z,9
2023-01-22T10:57:02.035Z,9
2023-01-22T10:58:01.332Z,10
2023-01-22T10:59:01.337Z,11
2023-01-22T11:00:02.206Z,12
2023-01-22T11:01:01.462Z,13
2023-01-22T11:02:01.382Z,12
2023-01-22T11:03:01.690Z,10
2023-01-22T11:04:01.363Z,9
2023-01-22T11:05:01.695Z,11
2023-01-22T11:06:01.328Z,11
2023-01-22T11:07:01.962Z,11
2023-01-22T11:08:01.603Z,12
2023-01-22T11:09:01.611Z,11
2023-01-22T11:10:01.389Z,11
2023-01-22T11:11:01.970Z,11
2023-01-22T11:12:01.333Z,11
2023-01-22T11:13:01.986Z,11
2023-01-22T11:14:01.898Z,12
2023-01-22T11:15:01.812Z,11
2023-01-22T11:16:01.430Z,11
2023-01-22T11:17:01.462Z,11
2023-01-22T11:18:01.490Z,12
2023-01-22T11:19:01.598Z,11
2023-01-22T11:20:02.222Z,11
2023-01-22T11:22:01.869Z,11
2023-01-22T11:23:01.332Z,10
2023-01-22T11:24:02.152Z,11
2023-01-22T11:25:01.796Z,10
2023-01-22T11:26:01.746Z,10
2023-01-22T11:27:02.155Z,10
2023-01-22T11:28:01.325Z,10
2023-01-22T11:29:01.333Z,10
2023-01-22T11:30:01.338Z,13
2023-01-22T11:31:01.936Z,15
2023-01-22T11:32:03.781Z,16
2023-01-22T11:33:01.344Z,12
2023-01-22T11:34:01.348Z,11
2023-01-22T11:35:01.971Z,9
2023-01-22T11:36:01.388Z,14
2023-01-22T11:37:01.321Z,13
2023-01-22T11:38:01.398Z,14
2023-01-22T11:39:01.805Z,10
2023-01-22T11:40:01.413Z,10
2023-01-22T11:41:01.353Z,9
2023-01-22T11:42:01.319Z,9
2023-01-22T11:43:01.327Z,11
2023-01-22T11:44:01.424Z,12
2023-01-22T11:45:01.329Z,13
2023-01-22T11:46:01.394Z,11
2023-01-22T11:47:01.328Z,13
2023-01-22T11:48:01.354Z,12
2023-01-22T11:49:01.609Z,15
2023-01-22T11:50:01.323Z,14
2023-01-22T11:51:01.616Z,11
2023-01-22T11:52:01.415Z,11
2023-01-22T11:53:01.415Z,11
2023-01-22T11:54:01.342Z,9
2023-01-22T11:55:01.390Z,10
2023-01-22T11:56:01.323Z,9
2023-01-22T11:57:02.114Z,10
2023-01-22T11:58:01.316Z,10
2023-01-22T11:59:01.676Z,24
2023-01-22T12:00:01.317Z,14
2023-01-22T12:01:01.854Z,17
2023-01-22T12:02:02.015Z,11
2023-01-22T12:03:01.513Z,13
2023-01-22T12:04:01.350Z,10
2023-01-22T12:05:01.965Z,10
2023-01-22T12:06:01.378Z,10
2023-01-22T12:07:01.751Z,9
2023-01-22T12:08:01.360Z,9
2023-01-22T12:09:01.397Z,11
2023-01-22T12:10:01.420Z,10
2023-01-22T12:11:02.040Z,10
2023-01-22T12:12:01.402Z,9
2023-01-22T12:13:01.323Z,9
2023-01-22T12:14:01.549Z,9
2023-01-22T12:15:01.332Z,8
2023-01-22T12:16:04.072Z,9
2023-01-22T12:17:01.336Z,8
2023-01-22T12:18:01.793Z,8
2023-01-22T12:19:07.286Z,10
2023-01-22T12:20:02.141Z,9
2023-01-22T12:21:01.324Z,9
2023-01-22T12:22:01.466Z,9
2023-01-22T12:23:01.568Z,10
2023-01-22T12:24:01.613Z,9
2023-01-22T12:25:01.337Z,10
2023-01-22T12:26:00.863Z,10
2023-01-22T12:27:01.964Z,9
2023-01-22T12:29:01.977Z,9
2023-01-22T12:30:01.917Z,9
2023-01-22T12:31:01.864Z,9
2023-01-22T12:32:01.328Z,9
2023-01-22T12:33:03.216Z,9
2023-01-22T12:34:01.594Z,10
2023-01-22T12:35:01.539Z,10
2023-01-22T12:36:01.608Z,10
2023-01-22T12:37:01.359Z,13
2023-01-22T12:38:01.365Z,13
2023-01-22T12:39:02.208Z,11
2023-01-22T12:40:01.316Z,10
2023-01-22T12:41:01.335Z,11
2023-01-22T12:42:01.925Z,10
2023-01-22T12:43:01.330Z,10
2023-01-22T12:44:01.529Z,11
2023-01-22T12:45:02.145Z,9
2023-01-22T12:46:01.304Z,10
2023-01-22T12:47:01.328Z,12
2023-01-22T12:48:01.326Z,13
2023-01-22T12:49:01.945Z,11
2023-01-22T12:50:04.723Z,10
2023-01-22T12:51:01.999Z,11
2023-01-22T12:52:01.371Z,12
2023-01-22T12:53:01.905Z,10
2023-01-22T12:54:01.316Z,9
2023-01-22T12:55:01.454Z,9
2023-01-22T12:56:01.325Z,9
2023-01-22T12:57:01.322Z,10
2023-01-22T12:58:01.349Z,9
2023-01-22T12:59:01.344Z,8
2023-01-22T13:00:01.718Z,8
2023-01-22T13:01:01.444Z,9
2023-01-22T13:02:01.346Z,10
2023-01-22T13:03:01.705Z,8
2023-01-22T13:04:01.350Z,7
2023-01-22T13:05:02.348Z,10
2023-01-22T13:06:01.441Z,8
2023-01-22T13:07:01.392Z,7
2023-01-22T13:08:01.812Z,7
2023-01-22T13:09:02.081Z,7
2023-01-22T13:10:01.470Z,6
2023-01-22T13:11:01.318Z,6
2023-01-22T13:12:01.324Z,7
2023-01-22T13:13:01.328Z,5
2023-01-22T13:14:14.170Z,6
2023-01-22T13:15:01.307Z,6
2023-01-22T13:16:01.336Z,6
2023-01-22T13:17:01.972Z,7
2023-01-22T13:18:07.076Z,6
2023-01-22T13:19:01.563Z,7
2023-01-22T13:20:02.183Z,7
2023-01-22T13:21:01.936Z,8
2023-01-22T13:22:01.315Z,7
2023-01-22T13:23:01.346Z,8
2023-01-22T13:24:01.330Z,7
2023-01-22T13:25:02.166Z,6
2023-01-22T13:26:01.313Z,7
2023-01-22T13:27:01.472Z,7
2023-01-22T13:28:02.201Z,6
2023-01-22T13:29:01.365Z,7
2023-01-22T13:30:01.308Z,5
2023-01-22T13:31:01.438Z,6
2023-01-22T13:32:01.345Z,5
2023-01-22T13:33:00.176Z,6
2023-01-22T13:34:02.316Z,6
2023-01-22T13:36:02.120Z,5
2023-01-22T13:37:01.763Z,5
2023-01-22T13:38:01.532Z,5
2023-01-22T13:39:01.593Z,5
2023-01-22T13:40:01.305Z,6
2023-01-22T13:41:01.309Z,6
2023-01-22T13:42:01.870Z,6
2023-01-22T13:43:01.319Z,7
2023-01-22T13:44:02.089Z,6
2023-01-22T13:45:01.344Z,6
2023-01-22T13:46:01.873Z,7
2023-01-22T13:47:01.316Z,8
2023-01-22T13:48:03.830Z,6
2023-01-22T13:49:01.900Z,6
2023-01-22T13:50:01.570Z,6
2023-01-22T13:51:01.331Z,6
2023-01-22T13:52:01.314Z,7
2023-01-22T13:53:02.036Z,7
2023-01-22T13:54:01.920Z,6
2023-01-22T13:55:01.315Z,6
2023-01-22T13:56:01.852Z,6
2023-01-22T13:57:01.720Z,6
2023-01-22T13:58:01.332Z,6
2023-01-22T13:59:01.552Z,6
2023-01-22T14:00:01.444Z,6
2023-01-22T14:01:01.528Z,6
2023-01-22T14:02:01.468Z,6
2023-01-22T14:03:01.569Z,5
2023-01-22T14:04:02.245Z,6
2023-01-22T14:05:01.309Z,6
2023-01-22T14:06:01.309Z,6
2023-01-22T14:07:01.321Z,6
2023-01-22T14:08:02.230Z,7
2023-01-22T14:09:01.554Z,6
2023-01-22T14:10:02.196Z,8
2023-01-22T14:11:01.317Z,6
2023-01-22T14:12:01.425Z,7
2023-01-22T14:13:02.245Z,7
2023-01-22T14:14:01.319Z,7
2023-01-22T14:15:02.016Z,8
2023-01-22T14:16:02.113Z,6
2023-01-22T14:17:01.425Z,6
2023-01-22T14:18:01.345Z,7
2023-01-22T14:19:01.690Z,7
2023-01-22T14:20:01.561Z,6
2023-01-22T14:21:01.333Z,6
2023-01-22T14:22:01.299Z,7
2023-01-22T14:23:01.304Z,7
2023-01-22T14:24:01.786Z,7
2023-01-22T14:25:01.808Z,6
2023-01-22T14:26:01.697Z,7
2023-01-22T14:27:01.392Z,7
2023-01-22T14:28:01.376Z,8
2023-01-22T14:29:01.830Z,7
2023-01-22T14:30:01.381Z,7